createdAt,value
2022-09-07T00:03:37.180Z,14.81
2022-09-07T00:08:39.324Z,14.80
2022-09-07T00:13:41.672Z,14.81
2022-09-07T00:18:46.067Z,14.81
2022-09-07T00:23:49.697Z,14.86
2022-09-07T00:28:50.864Z,14.87
2022-09-07T00:33:54.860Z,14.80
2022-09-07T00:38:55.762Z,14.76
2022-09-07T00:43:59.054Z,14.79
2022-09-07T00:49:08.233Z,14.73
2022-09-07T00:54:13.221Z,14.75
2022-09-07T00:59:16.613Z,14.71
2022-09-07T01:04:19.405Z,14.63
2022-09-07T01:09:22.991Z,14.65
2022-09-07T01:14:26.745Z,14.57
2022-09-07T01:20:03.991Z,14.48
2022-09-07T01:25:11.397Z,14.48
2022-09-07T01:30:15.446Z,14.55
2022-09-07T01:35:23.939Z,14.53
2022-09-07T01:40:31.563Z,14.47
2022-09-07T01:45:37.705Z,14.51
2022-09-07T01:50:41.496Z,14.44
2022-09-07T01:55:46.587Z,14.43
2022-09-07T02:00:54.061Z,14.47
2022-09-07T02:06:01.714Z,14.55
2022-09-07T02:11:06.251Z,14.53
2022-09-07T02:16:13.876Z,14.63
2022-09-07T02:21:18.653Z,14.63
2022-09-07T02:26:22.062Z,14.66
2022-09-07T02:31:24.687Z,14.67
2022-09-07T02:36:32.292Z,14.65
2022-09-07T02:41:35.341Z,14.72
2022-09-07T02:47:06.765Z,14.72
2022-09-07T02:52:17.641Z,14.70
2022-09-07T02:57:27.453Z,14.71
2022-09-07T03:02:36.215Z,14.72
2022-09-07T03:07:44.260Z,14.70
2022-09-07T03:12:47.237Z,14.68
2022-09-07T03:17:49.682Z,14.68
2022-09-07T03:22:52.111Z,14.65
2022-09-07T03:27:52.747Z,14.55
2022-09-07T03:32:54.731Z,14.65
2022-09-07T03:37:55.356Z,14.60
2022-09-07T03:42:55.954Z,14.55
2022-09-07T03:47:57.947Z,14.51
2022-09-07T03:52:58.555Z,14.55
2022-09-07T03:58:00.164Z,14.55
2022-09-07T04:03:02.085Z,14.55
2022-09-07T04:08:03.172Z,14.48
2022-09-07T04:13:03.774Z,14.45
2022-09-07T04:18:05.782Z,14.52
2022-09-07T04:23:06.399Z,14.46
2022-09-07T04:28:07.019Z,14.45
2022-09-07T04:33:10.395Z,14.40
2022-09-07T04:38:15.348Z,14.44
2022-09-07T04:43:15.955Z,14.44
2022-09-07T04:48:17.878Z,14.50
2022-09-07T04:53:18.683Z,14.55
2022-09-07T04:58:19.294Z,14.65
2022-09-07T05:03:21.290Z,14.72
2022-09-07T05:08:21.931Z,14.87
2022-09-07T05:13:22.717Z,14.96
2022-09-07T05:18:24.882Z,15.06
2022-09-07T05:23:26.255Z,15.11
2022-09-07T05:28:26.897Z,15.15
2022-09-07T05:38:49.493Z,15.26
2022-09-07T05:49:12.586Z,15.43
2022-09-07T05:54:13.255Z,15.56
2022-09-07T05:59:13.855Z,15.76
2022-09-07T06:04:15.888Z,16.12
2022-09-07T06:09:17.157Z,16.51
2022-09-07T06:14:17.790Z,16.98
2022-09-07T06:19:19.845Z,17.20
2022-09-07T06:24:20.486Z,17.36
2022-09-07T06:29:21.077Z,17.46
2022-09-07T06:34:24.148Z,17.55
2022-09-07T06:39:24.853Z,17.58
2022-09-07T06:44:25.576Z,17.69
2022-09-07T06:49:27.546Z,17.86
2022-09-07T06:59:48.943Z,17.71
2022-09-07T07:04:51.837Z,17.97
2022-09-07T07:09:52.451Z,18.21
2022-09-07T07:14:53.035Z,18.33
2022-09-07T07:19:54.962Z,18.48
2022-09-07T07:24:55.653Z,18.60
2022-09-07T07:29:56.260Z,18.63
2022-09-07T07:34:58.182Z,18.86
2022-09-07T07:40:14.568Z,18.97
2022-09-07T07:50:37.626Z,19.20
2022-09-07T07:55:45.676Z,19.10
2022-09-07T08:00:55.210Z,19.37
2022-09-07T08:05:58.060Z,19.54
2022-09-07T08:10:58.752Z,19.71
2022-09-07T08:15:59.508Z,19.86
2022-09-07T08:21:02.239Z,19.89
2022-09-07T08:26:02.874Z,20.04
2022-09-07T08:31:06.097Z,20.19
2022-09-07T08:36:09.851Z,20.45
2022-09-07T08:41:39.268Z,20.60
2022-09-07T08:46:45.613Z,20.82
2022-09-07T08:51:51.769Z,20.99
2022-09-07T09:02:40.267Z,21.35
2022-09-07T09:07:47.245Z,21.69
2022-09-07T09:13:05.402Z,22.10
2022-09-07T09:18:20.917Z,22.44
2022-09-07T09:23:26.737Z,22.92
2022-09-07T09:28:30.270Z,23.55
2022-09-07T09:33:33.107Z,23.85
2022-09-07T09:38:36.883Z,23.88
2022-09-07T09:43:45.386Z,23.84
2022-09-07T09:48:54.296Z,24.09
2022-09-07T09:54:00.148Z,24.41
2022-09-07T10:04:35.495Z,24.93
2022-09-07T10:09:40.457Z,25.03
2022-09-07T10:14:45.272Z,25.26
2022-09-07T10:19:45.954Z,25.13
2022-09-07T10:24:47.902Z,25.12
2022-09-07T10:29:48.953Z,24.92
2022-09-07T10:35:05.275Z,24.91
2022-09-07T10:40:20.766Z,24.90
2022-09-07T10:45:28.921Z,24.55
2022-09-07T10:50:38.212Z,24.39
2022-09-07T10:55:43.416Z,24.29
2022-09-07T11:00:52.265Z,24.88
2022-09-07T11:06:07.347Z,25.36
2022-09-07T11:12:00.352Z,25.56
2022-09-07T11:16:51.735Z,25.93
2022-09-07T11:22:04.950Z,25.68
2022-09-07T11:27:15.498Z,25.81
2022-09-07T11:32:22.353Z,25.50
2022-09-07T11:37:29.156Z,25.77
2022-09-07T11:42:45.979Z,26.00
2022-09-07T11:47:51.599Z,26.13
2022-09-07T11:52:56.313Z,25.96
2022-09-07T11:58:29.923Z,25.51
2022-09-07T12:03:54.756Z,25.21
2022-09-07T12:09:07.665Z,25.35
2022-09-07T12:14:31.342Z,25.35
2022-09-07T12:19:32.087Z,25.41
2022-09-07T12:24:42.099Z,25.33
2022-09-07T12:29:45.568Z,24.88
2022-09-07T12:34:57.959Z,24.45
2022-09-07T12:40:33.120Z,23.96
2022-09-07T12:45:53.407Z,23.50
2022-09-07T12:50:58.875Z,23.12
2022-09-07T12:56:24.322Z,22.86
2022-09-07T13:01:36.287Z,22.50
2022-09-07T13:07:04.570Z,22.20
2022-09-07T13:17:56.335Z,21.15
2022-09-07T13:23:22.763Z,20.86
2022-09-07T13:28:34.829Z,20.80
2022-09-07T13:33:48.241Z,20.85
2022-09-07T13:38:51.320Z,21.01
2022-09-07T13:43:58.715Z,21.90
2022-09-07T13:49:07.518Z,22.28
2022-09-07T13:54:16.873Z,22.87
2022-09-07T13:59:22.068Z,23.42
2022-09-07T14:04:27.196Z,24.01
2022-09-07T14:09:27.823Z,24.05
2022-09-07T14:14:30.190Z,23.61
2022-09-07T14:19:39.236Z,23.55
2022-09-07T14:24:43.509Z,23.54
2022-09-07T14:29:44.121Z,23.74
2022-09-07T14:34:46.934Z,23.91
2022-09-07T14:39:50.387Z,24.25
2022-09-07T14:44:53.242Z,24.69
2022-09-07T14:49:58.073Z,25.20
2022-09-07T14:54:58.848Z,24.79
2022-09-07T15:00:19.396Z,24.74
2022-09-07T15:05:25.637Z,25.02
2022-09-07T15:10:36.833Z,25.01
2022-09-07T15:15:39.551Z,25.03
2022-09-07T15:20:44.267Z,24.96
2022-09-07T15:25:50.860Z,24.74
2022-09-07T15:31:39.633Z,24.49
2022-09-07T15:36:17.501Z,24.59
2022-09-07T15:41:24.199Z,25.10
2022-09-07T15:46:26.396Z,25.72
2022-09-07T16:13:01.799Z,24.83
2022-09-07T16:18:04.453Z,24.46
2022-09-07T16:23:14.690Z,24.11
2022-09-07T16:28:16.063Z,23.43
2022-09-07T16:33:16.709Z,22.90
2022-09-07T16:43:39.318Z,22.30
2022-09-07T16:48:39.910Z,22.10
2022-09-07T16:53:42.135Z,21.90
2022-09-07T16:58:44.433Z,21.78
2022-09-07T17:03:45.611Z,21.57
2022-09-07T17:08:48.389Z,21.50
2022-09-07T17:13:49.682Z,21.32
2022-09-07T17:24:12.941Z,21.04
2022-09-07T17:29:13.586Z,20.97
2022-09-07T17:34:14.229Z,20.92
2022-09-07T17:39:18.143Z,20.82
2022-09-07T17:44:19.340Z,20.77
2022-09-07T17:49:19.973Z,20.71
2022-09-07T17:54:22.233Z,20.67
2022-09-07T18:04:43.819Z,20.54
2022-09-07T18:09:45.925Z,20.55
2022-09-07T18:14:46.625Z,20.69
2022-09-07T18:19:47.233Z,20.61
2022-09-07T18:24:50.985Z,20.60
2022-09-07T18:29:51.611Z,20.71
2022-09-07T18:34:52.324Z,20.59
2022-09-07T18:39:54.554Z,20.40
2022-09-07T18:50:16.909Z,20.36
2022-09-07T18:55:18.822Z,20.37
2022-09-07T19:00:19.618Z,20.32
2022-09-07T19:10:42.301Z,20.16
2022-09-07T19:15:42.981Z,20.14
2022-09-07T19:20:43.646Z,20.20
2022-09-07T19:25:45.649Z,20.09
2022-09-07T19:30:46.377Z,19.85
2022-09-07T19:35:46.997Z,19.76
2022-09-07T19:40:57.484Z,19.56
2022-09-07T19:45:59.202Z,19.66
2022-09-07T19:51:02.325Z,19.48
2022-09-07T19:56:06.294Z,19.32
2022-09-07T20:01:08.646Z,19.33
2022-09-07T20:06:11.421Z,19.21
2022-09-07T20:11:16.261Z,19.07
2022-09-07T20:16:19.656Z,18.93
2022-09-07T20:21:22.458Z,18.88
2022-09-07T20:26:24.443Z,18.82
2022-09-07T20:31:26.195Z,18.64
2022-09-07T20:36:26.859Z,18.66
2022-09-07T20:41:31.256Z,18.81
2022-09-07T20:46:32.510Z,18.83
2022-09-07T20:51:33.355Z,18.71
2022-09-07T20:56:35.332Z,18.61
2022-09-07T21:01:36.603Z,18.64
2022-09-07T21:06:37.390Z,18.67
2022-09-07T21:11:41.266Z,18.49
2022-09-07T21:16:42.540Z,18.23
2022-09-07T21:21:43.855Z,18.30
2022-09-07T21:26:46.132Z,18.40
2022-09-07T21:31:47.393Z,18.38
2022-09-07T21:36:48.026Z,18.24
2022-09-07T21:41:49.931Z,18.17
2022-09-07T21:46:51.133Z,17.96
2022-09-07T21:51:51.884Z,17.85
2022-09-07T21:56:54.187Z,17.92
2022-09-07T22:01:54.810Z,17.98
2022-09-07T22:06:55.521Z,18.13
2022-09-07T22:11:57.551Z,18.06
2022-09-07T22:16:58.167Z,17.98
2022-09-07T22:21:58.778Z,17.83
2022-09-07T22:27:00.663Z,17.76
2022-09-07T22:32:01.294Z,17.65
2022-09-07T22:37:01.917Z,17.63
2022-09-07T22:42:03.902Z,17.47
2022-09-07T22:47:04.653Z,17.48
2022-09-07T22:52:05.338Z,17.49
2022-09-07T22:57:07.551Z,17.47
2022-09-07T23:02:08.260Z,17.36
2022-09-07T23:07:08.921Z,17.31
2022-09-07T23:12:10.839Z,17.36
2022-09-07T23:17:11.405Z,17.31
2022-09-07T23:22:11.992Z,17.22
2022-09-07T23:27:13.961Z,17.15
2022-09-07T23:32:14.586Z,17.10
2022-09-07T23:37:15.174Z,17.04
2022-09-07T23:42:17.089Z,17.10
2022-09-07T23:47:17.837Z,17.07
2022-09-07T23:52:18.445Z,16.97
2022-09-07T23:57:20.334Z,16.90
